createdAt,value
2023-04-30T00:00:08.671Z,95.20
2023-04-30T00:02:35.966Z,95.30
2023-04-30T00:05:03.198Z,95.60
2023-04-30T00:07:30.372Z,95.70
2023-04-30T00:09:57.890Z,95.60
2023-04-30T00:12:25.103Z,96.10
2023-04-30T00:14:52.269Z,95.90
2023-04-30T00:17:19.365Z,95.40
2023-04-30T00:19:46.447Z,95.40
2023-04-30T00:22:13.683Z,95.70
2023-04-30T00:24:40.789Z,95.50
2023-04-30T00:27:08.018Z,95.90
2023-04-30T00:29:35.187Z,96.00
2023-04-30T00:32:02.378Z,95.90
2023-04-30T00:34:29.613Z,95.60
2023-04-30T00:36:56.728Z,96.00
2023-04-30T00:39:23.875Z,95.80
2023-04-30T00:41:51.122Z,95.80
2023-04-30T00:44:18.330Z,95.60
2023-04-30T00:46:45.523Z,95.50
2023-04-30T00:49:12.778Z,95.40
2023-04-30T00:51:44.052Z,95.60
2023-04-30T00:54:11.520Z,95.40
2023-04-30T00:56:38.785Z,95.00
2023-04-30T00:59:06.026Z,94.80
2023-04-30T01:01:33.428Z,94.80
2023-04-30T01:04:01.420Z,94.70
2023-04-30T01:06:28.949Z,94.40
2023-04-30T01:08:57.376Z,94.30
2023-04-30T01:11:50.068Z,94.10
2023-04-30T01:14:19.951Z,94.10
2023-04-30T01:16:52.845Z,94.00
2023-04-30T01:19:42.154Z,93.90
2023-04-30T01:22:23.684Z,93.80
2023-04-30T01:25:05.926Z,93.80
2023-04-30T01:27:51.375Z,93.90
2023-04-30T01:30:19.271Z,93.80
2023-04-30T01:32:46.400Z,93.60
2023-04-30T01:35:13.516Z,93.40
2023-04-30T01:38:09.951Z,93.40
2023-04-30T01:40:46.236Z,93.30
2023-04-30T01:43:31.990Z,93.20
2023-04-30T01:46:19.524Z,93.00
2023-04-30T01:48:58.808Z,92.90
2023-04-30T01:51:43.621Z,93.00
2023-04-30T01:54:38.743Z,93.10
2023-04-30T01:57:16.007Z,93.20
2023-04-30T01:59:43.507Z,93.10
2023-04-30T02:02:10.603Z,93.30
2023-04-30T02:04:37.677Z,92.90
2023-04-30T02:07:04.777Z,92.80
2023-04-30T02:09:34.320Z,92.90
2023-04-30T02:12:01.474Z,92.90
2023-04-30T02:14:28.635Z,92.90
2023-04-30T02:16:55.859Z,92.90
2023-04-30T02:19:23.002Z,93.00
2023-04-30T02:21:50.224Z,92.90
2023-04-30T02:24:17.396Z,93.00
2023-04-30T02:26:44.451Z,92.80
2023-04-30T02:29:11.918Z,92.80
2023-04-30T02:31:39.272Z,92.70
2023-04-30T02:34:06.429Z,92.70
2023-04-30T02:36:36.707Z,92.60
2023-04-30T02:39:03.897Z,92.60
2023-04-30T02:41:31.105Z,92.20
2023-04-30T02:43:58.249Z,92.10
2023-04-30T02:46:25.469Z,91.70
2023-04-30T02:48:52.591Z,92.00
2023-04-30T02:51:19.666Z,91.20
2023-04-30T02:53:46.826Z,91.40
2023-04-30T02:56:13.905Z,91.10
2023-04-30T02:58:41.169Z,90.90
2023-04-30T03:01:08.441Z,90.40
2023-04-30T03:03:35.799Z,91.00
2023-04-30T03:06:03.090Z,90.80
2023-04-30T03:08:30.293Z,90.20
2023-04-30T03:10:57.390Z,90.40
2023-04-30T03:13:27.327Z,90.10
2023-04-30T03:16:02.080Z,90.10
2023-04-30T03:18:29.435Z,89.80
2023-04-30T03:20:57.407Z,90.00
2023-04-30T03:23:27.504Z,89.90
2023-04-30T03:25:54.644Z,89.90
2023-04-30T03:28:22.034Z,89.40
2023-04-30T03:30:49.138Z,89.10
2023-04-30T03:33:16.496Z,89.30
2023-04-30T03:35:43.758Z,89.20
2023-04-30T03:38:10.933Z,89.40
2023-04-30T03:40:38.110Z,88.90
2023-04-30T03:43:05.455Z,88.90
2023-04-30T03:45:32.749Z,89.10
2023-04-30T03:48:00.431Z,88.90
2023-04-30T03:50:27.810Z,89.10
2023-04-30T03:52:54.874Z,88.90
2023-04-30T03:55:21.938Z,88.90
2023-04-30T03:57:49.084Z,88.80
2023-04-30T04:00:16.409Z,89.00
2023-04-30T04:02:43.654Z,88.10
2023-04-30T04:05:10.881Z,88.10
2023-04-30T04:07:38.067Z,87.50
2023-04-30T04:10:05.643Z,87.50
2023-04-30T04:12:32.719Z,87.00
2023-04-30T04:14:59.808Z,86.70
2023-04-30T04:17:27.033Z,86.70
2023-04-30T04:19:54.319Z,86.50
2023-04-30T04:22:21.558Z,86.40
2023-04-30T04:24:48.607Z,85.30
2023-04-30T04:27:16.504Z,85.00
2023-04-30T04:29:44.565Z,84.10
2023-04-30T04:32:11.902Z,83.60
2023-04-30T04:34:39.000Z,83.50
2023-04-30T04:37:06.131Z,84.00
2023-04-30T04:39:33.247Z,84.20
2023-04-30T04:42:01.368Z,83.00
2023-04-30T04:44:29.146Z,83.40
2023-04-30T04:46:56.888Z,81.80
2023-04-30T04:49:25.207Z,81.80
2023-04-30T04:51:52.479Z,80.40
2023-04-30T04:54:21.334Z,80.40
2023-04-30T04:56:48.604Z,81.00
2023-04-30T04:59:17.584Z,79.20
2023-04-30T05:01:44.826Z,80.10
2023-04-30T05:04:13.864Z,78.60
2023-04-30T05:06:42.758Z,78.20
2023-04-30T05:09:10.089Z,77.50
2023-04-30T05:11:38.606Z,77.70
2023-04-30T05:14:06.005Z,79.30
2023-04-30T05:16:33.349Z,77.30
2023-04-30T05:19:00.444Z,76.10
2023-04-30T05:21:29.809Z,77.80
2023-04-30T05:23:56.968Z,77.10
2023-04-30T05:26:27.134Z,74.80
2023-04-30T05:28:54.339Z,72.70
2023-04-30T05:31:22.352Z,75.00
2023-04-30T05:33:49.484Z,73.70
2023-04-30T05:36:16.803Z,74.10
2023-04-30T05:38:43.902Z,72.60
2023-04-30T05:41:12.906Z,72.40
2023-04-30T05:43:40.065Z,72.10
2023-04-30T05:46:07.296Z,73.10
2023-04-30T05:48:34.471Z,71.70
2023-04-30T05:51:01.661Z,71.90
2023-04-30T05:53:28.799Z,72.20
2023-04-30T05:55:56.056Z,70.40
2023-04-30T05:58:23.248Z,70.70
2023-04-30T06:00:52.049Z,69.70
2023-04-30T06:03:20.235Z,68.80
2023-04-30T06:05:47.770Z,68.90
2023-04-30T06:08:14.935Z,69.80
2023-04-30T06:10:42.185Z,68.90
2023-04-30T06:13:09.737Z,68.40
2023-04-30T06:15:36.864Z,68.30
2023-04-30T06:18:04.094Z,66.90
2023-04-30T06:20:31.313Z,67.60
2023-04-30T06:22:58.660Z,68.40
2023-04-30T06:25:26.530Z,67.60
2023-04-30T06:27:54.231Z,67.20
2023-04-30T06:30:21.772Z,66.90
2023-04-30T06:32:48.952Z,67.30
2023-04-30T06:35:16.176Z,67.40
2023-04-30T06:37:44.601Z,67.80
2023-04-30T06:40:11.915Z,68.50
2023-04-30T06:42:39.154Z,69.30
2023-04-30T06:45:09.428Z,69.10
2023-04-30T06:47:38.426Z,69.40
2023-04-30T06:50:06.221Z,68.70
2023-04-30T06:52:33.272Z,69.20
2023-04-30T06:55:01.128Z,69.50
2023-04-30T06:57:28.427Z,69.20
2023-04-30T06:59:56.041Z,67.90
2023-04-30T07:02:23.516Z,67.20
2023-04-30T07:04:50.651Z,67.50
2023-04-30T07:07:18.824Z,66.60
2023-04-30T07:09:45.959Z,66.80
2023-04-30T07:12:13.773Z,67.30
2023-04-30T07:14:41.080Z,65.40
2023-04-30T07:17:10.284Z,64.90
2023-04-30T07:19:37.428Z,62.60
2023-04-30T07:22:04.627Z,62.10
2023-04-30T07:24:31.727Z,62.10
2023-04-30T07:27:02.926Z,62.00
2023-04-30T07:29:30.501Z,60.70
2023-04-30T07:31:58.526Z,58.70
2023-04-30T07:34:25.779Z,60.10
2023-04-30T07:36:52.857Z,58.60
2023-04-30T07:39:19.993Z,57.50
2023-04-30T07:41:47.152Z,57.70
2023-04-30T07:44:14.293Z,56.20
2023-04-30T07:46:41.586Z,56.80
2023-04-30T07:49:08.789Z,57.00
2023-04-30T07:51:36.195Z,55.70
2023-04-30T07:54:03.542Z,56.20
2023-04-30T07:56:30.710Z,55.10
2023-04-30T07:58:57.919Z,56.30
2023-04-30T08:01:26.202Z,55.20
2023-04-30T08:03:53.549Z,55.00
2023-04-30T08:06:20.824Z,54.20
2023-04-30T08:08:50.737Z,54.80
2023-04-30T08:11:18.102Z,53.80
2023-04-30T08:13:45.552Z,53.50
2023-04-30T08:16:12.756Z,54.60
2023-04-30T08:18:43.934Z,53.40
2023-04-30T08:21:12.482Z,52.10
2023-04-30T08:23:39.730Z,52.40
2023-04-30T08:26:06.858Z,52.60
2023-04-30T08:28:43.413Z,52.70
2023-04-30T08:31:10.663Z,52.90
2023-04-30T08:33:39.831Z,51.50
2023-04-30T08:36:07.261Z,51.70
2023-04-30T08:38:34.429Z,50.90
2023-04-30T08:41:13.922Z,51.70
2023-04-30T08:43:42.100Z,52.10
2023-04-30T08:46:09.499Z,52.30
2023-04-30T08:48:36.936Z,51.60
2023-04-30T08:51:05.320Z,49.40
2023-04-30T08:53:36.039Z,50.10
2023-04-30T08:56:03.772Z,49.50
2023-04-30T08:58:31.163Z,50.10
2023-04-30T09:00:59.955Z,50.10
2023-04-30T09:03:28.618Z,50.20
2023-04-30T09:05:56.342Z,50.60
2023-04-30T09:08:51.811Z,49.40
2023-04-30T09:11:28.962Z,49.60
2023-04-30T09:14:01.288Z,49.40
2023-04-30T09:16:44.208Z,48.90
2023-04-30T09:19:27.181Z,48.90
2023-04-30T09:21:54.954Z,49.50
2023-04-30T09:24:22.237Z,49.70
2023-04-30T09:26:50.865Z,50.50
2023-04-30T09:29:18.060Z,50.60
2023-04-30T09:31:48.338Z,50.10
2023-04-30T09:34:16.088Z,50.50
2023-04-30T09:36:56.035Z,50.80
2023-04-30T09:39:23.321Z,50.00
2023-04-30T09:41:51.615Z,50.20
2023-04-30T09:44:36.838Z,50.00
2023-04-30T09:47:04.874Z,50.10
2023-04-30T09:49:32.242Z,50.10
2023-04-30T09:52:01.373Z,48.90
2023-04-30T09:54:30.117Z,48.70
2023-04-30T09:57:02.380Z,49.20
2023-04-30T09:59:35.513Z,49.50
2023-04-30T10:02:04.990Z,49.50
2023-04-30T10:04:40.015Z,49.20
2023-04-30T10:07:21.862Z,49.10
2023-04-30T10:10:04.038Z,49.50
2023-04-30T10:12:42.812Z,49.60
2023-04-30T10:15:13.395Z,49.20
2023-04-30T10:17:42.640Z,49.20
2023-04-30T10:20:11.401Z,48.00
2023-04-30T10:22:38.855Z,48.00
2023-04-30T10:25:07.245Z,47.80
2023-04-30T10:27:36.328Z,48.00
2023-04-30T10:30:03.637Z,48.70
2023-04-30T10:32:38.433Z,48.60
2023-04-30T10:35:20.012Z,48.40
2023-04-30T10:38:08.706Z,48.60
2023-04-30T10:40:37.507Z,48.70
2023-04-30T10:43:04.777Z,49.50
2023-04-30T10:45:37.922Z,49.50
2023-04-30T10:48:06.885Z,49.40
2023-04-30T10:50:43.004Z,49.20
2023-04-30T10:53:19.169Z,49.30
2023-04-30T10:56:01.507Z,48.60
2023-04-30T10:58:34.650Z,48.60
2023-04-30T11:01:08.750Z,47.60
2023-04-30T11:03:37.333Z,47.70
2023-04-30T11:06:15.236Z,48.00
2023-04-30T11:08:46.493Z,48.70
2023-04-30T11:11:23.030Z,48.00
2023-04-30T11:14:01.222Z,48.30
2023-04-30T11:16:35.292Z,47.30
2023-04-30T11:19:13.941Z,47.50
2023-04-30T11:21:42.316Z,46.90
2023-04-30T11:24:09.616Z,46.80
2023-04-30T11:27:08.658Z,46.80
2023-04-30T11:29:37.573Z,47.70
2023-04-30T11:32:05.661Z,47.70
2023-04-30T11:34:34.879Z,47.30
2023-04-30T11:37:03.408Z,47.10
2023-04-30T11:39:33.761Z,46.50
2023-04-30T11:42:03.207Z,46.00
2023-04-30T11:44:30.363Z,45.10
2023-04-30T11:46:57.798Z,45.30
2023-04-30T11:49:25.061Z,44.40
2023-04-30T11:51:53.231Z,45.10
2023-04-30T11:54:20.306Z,45.70
2023-04-30T11:56:48.736Z,45.90
2023-04-30T11:59:18.226Z,46.70
2023-04-30T12:01:45.500Z,46.70
2023-04-30T12:04:13.744Z,46.60
2023-04-30T12:06:41.565Z,46.20
2023-04-30T12:09:09.685Z,46.50
2023-04-30T12:11:39.022Z,45.00
2023-04-30T12:14:11.100Z,45.30
2023-04-30T12:16:42.871Z,45.20
2023-04-30T12:19:10.321Z,45.10
2023-04-30T12:21:38.855Z,45.30
2023-04-30T12:24:07.354Z,44.80
2023-04-30T12:26:44.002Z,44.40
2023-04-30T12:29:16.425Z,44.70
2023-04-30T12:31:44.060Z,45.00
2023-04-30T12:34:13.582Z,44.90
2023-04-30T12:36:44.526Z,44.60
2023-04-30T12:39:13.128Z,44.40
2023-04-30T12:41:48.356Z,44.00
2023-04-30T12:44:24.393Z,44.80
2023-04-30T12:46:57.388Z,45.10
2023-04-30T12:49:33.590Z,45.60
2023-04-30T12:52:04.129Z,45.70
2023-04-30T12:54:34.919Z,45.80
2023-04-30T12:57:12.781Z,46.00
2023-04-30T12:59:52.443Z,46.10
2023-04-30T13:02:23.980Z,45.00
2023-04-30T13:04:51.796Z,44.60
2023-04-30T13:07:19.253Z,44.70
2023-04-30T13:09:49.463Z,44.60
2023-04-30T13:12:16.768Z,44.60
2023-04-30T13:14:43.929Z,44.80
2023-04-30T13:17:13.899Z,44.90
2023-04-30T13:19:41.512Z,43.90
2023-04-30T13:22:10.783Z,43.20
2023-04-30T13:24:37.965Z,43.20
2023-04-30T13:27:05.201Z,43.40
2023-04-30T13:29:35.478Z,43.40
2023-04-30T13:32:04.293Z,44.10
2023-04-30T13:34:31.442Z,44.40
2023-04-30T13:36:58.571Z,44.30
2023-04-30T13:39:25.656Z,44.40
2023-04-30T13:41:52.813Z,44.60
2023-04-30T13:44:19.917Z,44.80
2023-04-30T13:46:47.054Z,45.00
2023-04-30T13:49:14.255Z,45.00
2023-04-30T13:51:41.448Z,45.00
2023-04-30T13:54:08.679Z,45.00
2023-04-30T13:56:35.825Z,44.70
2023-04-30T13:59:03.119Z,42.80
2023-04-30T14:01:31.349Z,43.00
2023-04-30T14:03:59.012Z,43.40
2023-04-30T14:06:26.250Z,43.40
2023-04-30T14:08:53.575Z,44.10
2023-04-30T14:11:21.996Z,44.80
2023-04-30T14:13:49.311Z,45.20
2023-04-30T14:16:16.603Z,45.30
2023-04-30T14:18:44.376Z,45.20
2023-04-30T14:21:11.728Z,45.80
2023-04-30T14:23:39.337Z,46.10
2023-04-30T14:26:06.450Z,46.40
2023-04-30T14:28:33.725Z,46.20
2023-04-30T14:31:00.832Z,46.30
2023-04-30T14:33:28.039Z,46.20
2023-04-30T14:35:55.309Z,45.50
2023-04-30T14:38:22.487Z,45.80
2023-04-30T14:40:49.612Z,46.20
2023-04-30T14:43:16.833Z,45.30
2023-04-30T14:45:45.529Z,45.80
2023-04-30T14:48:12.711Z,46.10
2023-04-30T14:50:39.924Z,46.10
2023-04-30T14:53:07.674Z,46.20
2023-04-30T14:55:35.866Z,45.10
2023-04-30T14:58:03.042Z,45.30
2023-04-30T15:00:34.044Z,46.20
2023-04-30T15:03:01.228Z,45.60
2023-04-30T15:05:28.870Z,46.20
2023-04-30T15:07:55.979Z,46.20
2023-04-30T15:10:24.897Z,46.30
2023-04-30T15:12:51.976Z,46.30
2023-04-30T15:15:22.632Z,46.30
2023-04-30T15:17:49.870Z,45.80
2023-04-30T15:20:17.315Z,45.10
2023-04-30T15:22:44.689Z,45.30
2023-04-30T15:25:11.860Z,45.40
2023-04-30T15:27:39.836Z,45.20
2023-04-30T15:30:08.644Z,45.30
2023-04-30T15:32:35.787Z,45.70
2023-04-30T15:35:03.128Z,45.90
2023-04-30T15:37:30.311Z,45.60
2023-04-30T15:39:57.850Z,43.90
2023-04-30T15:42:27.621Z,43.80
2023-04-30T15:44:55.560Z,44.00
2023-04-30T15:47:25.316Z,44.20
2023-04-30T15:50:06.267Z,44.30
2023-04-30T15:52:36.506Z,44.70
2023-04-30T15:55:12.606Z,44.90
2023-04-30T15:57:51.961Z,43.60
2023-04-30T16:00:23.498Z,43.20
2023-04-30T16:02:53.931Z,41.60
2023-04-30T16:05:24.071Z,40.30
2023-04-30T16:07:54.930Z,39.40
2023-04-30T16:10:22.209Z,38.30
2023-04-30T16:12:52.529Z,38.70
2023-04-30T16:15:19.638Z,38.70
2023-04-30T16:17:52.829Z,37.50
2023-04-30T16:20:30.238Z,37.70
2023-04-30T16:22:57.726Z,36.60
2023-04-30T16:25:27.986Z,37.30
2023-04-30T16:30:39.174Z,37.50
2023-04-30T16:33:07.143Z,38.40
2023-04-30T16:35:53.630Z,39.80
2023-04-30T16:38:24.176Z,40.90
2023-04-30T16:40:54.925Z,41.40
2023-04-30T16:43:29.797Z,41.80
2023-04-30T16:45:57.034Z,42.20
2023-04-30T16:48:24.313Z,42.90
2023-04-30T16:50:51.663Z,42.90
2023-04-30T16:53:18.901Z,42.60
2023-04-30T16:55:46.216Z,42.60
2023-04-30T16:58:14.558Z,42.80
2023-04-30T17:00:41.781Z,43.20
2023-04-30T17:03:10.497Z,43.80
2023-04-30T17:05:40.448Z,44.10
2023-04-30T17:08:10.758Z,44.30
2023-04-30T17:10:42.102Z,44.50
2023-04-30T17:13:10.749Z,44.80
2023-04-30T17:15:38.658Z,44.90
2023-04-30T17:18:06.331Z,45.10
2023-04-30T17:20:33.918Z,45.00
2023-04-30T17:23:01.865Z,45.30
2023-04-30T17:25:32.175Z,45.30
2023-04-30T17:28:03.136Z,45.40
2023-04-30T17:30:30.269Z,45.60
2023-04-30T17:33:01.082Z,45.50
2023-04-30T17:35:30.700Z,45.80
2023-04-30T17:37:57.873Z,46.00
2023-04-30T17:40:25.073Z,46.10
2023-04-30T17:42:54.940Z,46.20
2023-04-30T17:45:22.052Z,46.30
2023-04-30T17:47:49.458Z,47.10
2023-04-30T17:50:16.674Z,46.80
2023-04-30T17:52:43.899Z,46.80
2023-04-30T17:55:11.481Z,46.80
2023-04-30T17:57:38.610Z,47.20
2023-04-30T18:00:10.355Z,46.90
2023-04-30T18:02:39.872Z,47.40
2023-04-30T18:05:07.432Z,47.20
2023-04-30T18:07:36.870Z,47.50
2023-04-30T18:10:04.381Z,47.60
2023-04-30T18:12:31.564Z,48.00
2023-04-30T18:14:59.456Z,48.00
2023-04-30T18:17:27.030Z,47.80
2023-04-30T18:19:54.808Z,47.80
2023-04-30T18:22:22.319Z,47.80
2023-04-30T18:24:50.760Z,48.20
2023-04-30T18:27:17.959Z,48.70
2023-04-30T18:29:45.302Z,48.70
2023-04-30T18:32:12.860Z,48.80
2023-04-30T18:34:40.082Z,48.50
2023-04-30T18:37:07.191Z,49.00
2023-04-30T18:39:34.325Z,49.10
2023-04-30T18:42:04.358Z,48.80
2023-04-30T18:44:32.565Z,49.00
2023-04-30T18:46:59.720Z,49.30
2023-04-30T18:49:26.874Z,49.00
2023-04-30T18:51:55.675Z,49.20
2023-04-30T18:54:25.733Z,49.10
2023-04-30T18:56:53.504Z,49.50
2023-04-30T18:59:22.226Z,49.80
2023-04-30T19:01:51.821Z,49.60
2023-04-30T19:04:18.994Z,50.70
2023-04-30T19:06:48.255Z,49.90
2023-04-30T19:09:17.699Z,49.90
2023-04-30T19:11:44.868Z,50.00
2023-04-30T19:14:12.169Z,50.20
2023-04-30T19:16:39.370Z,50.10
2023-04-30T19:19:06.697Z,50.20
2023-04-30T19:21:36.359Z,50.40
2023-04-30T19:24:03.704Z,50.10
2023-04-30T19:26:32.129Z,50.30
2023-04-30T19:28:59.991Z,50.40
2023-04-30T19:31:27.304Z,50.40
2023-04-30T19:33:54.553Z,50.40
2023-04-30T19:36:21.747Z,50.60
2023-04-30T19:38:51.368Z,50.50
2023-04-30T19:41:18.543Z,50.50
2023-04-30T19:43:45.663Z,50.60
2023-04-30T19:46:12.931Z,50.60
2023-04-30T19:48:40.099Z,50.60
2023-04-30T19:51:07.271Z,50.80
2023-04-30T19:53:34.382Z,50.70
2023-04-30T19:56:01.479Z,50.60
2023-04-30T19:58:29.395Z,50.90
2023-04-30T20:00:56.654Z,51.40
2023-04-30T20:03:25.463Z,50.80
2023-04-30T20:05:53.008Z,50.90
2023-04-30T20:08:20.268Z,51.90
2023-04-30T20:10:48.972Z,51.60
2023-04-30T20:13:17.388Z,51.20
2023-04-30T20:15:44.570Z,50.80
2023-04-30T20:18:12.647Z,50.90
2023-04-30T20:20:40.108Z,50.60
2023-04-30T20:23:15.096Z,51.00
2023-04-30T20:25:45.268Z,51.00
2023-04-30T20:28:14.566Z,51.10
2023-04-30T20:30:42.905Z,51.10
2023-04-30T20:33:11.223Z,51.00
2023-04-30T20:35:42.263Z,50.80
2023-04-30T20:38:09.823Z,50.80
2023-04-30T20:40:40.199Z,51.00
2023-04-30T20:43:11.921Z,51.20
2023-04-30T20:45:40.793Z,51.00
2023-04-30T20:48:08.913Z,50.50
2023-04-30T20:50:37.417Z,51.10
2023-04-30T20:53:04.699Z,51.10
2023-04-30T20:55:31.925Z,51.00
2023-04-30T20:57:59.203Z,51.30
2023-04-30T21:00:26.599Z,52.10
2023-04-30T21:02:54.092Z,51.60
2023-04-30T21:05:21.499Z,51.90
2023-04-30T21:07:48.786Z,52.50
2023-04-30T21:10:18.515Z,52.10
2023-04-30T21:12:48.404Z,52.50
2023-04-30T21:15:15.987Z,51.80
2023-04-30T21:17:43.178Z,51.60
2023-04-30T21:20:10.803Z,51.60
2023-04-30T21:22:42.068Z,52.00
2023-04-30T21:25:14.228Z,51.90
2023-04-30T21:27:41.477Z,52.00
2023-04-30T21:30:11.655Z,52.40
2023-04-30T21:32:39.519Z,51.90
2023-04-30T21:35:07.066Z,52.40
2023-04-30T21:37:34.312Z,52.50
2023-04-30T21:40:01.551Z,52.80
2023-04-30T21:42:29.115Z,53.30
2023-04-30T21:45:03.942Z,52.50
2023-04-30T21:47:31.725Z,52.90
2023-04-30T21:49:59.593Z,53.30
2023-04-30T21:52:26.940Z,53.30
2023-04-30T21:54:54.033Z,52.90
2023-04-30T21:57:27.689Z,53.00
2023-04-30T21:59:55.456Z,52.80
2023-04-30T22:02:24.311Z,52.80
2023-04-30T22:04:53.646Z,53.40
2023-04-30T22:07:20.847Z,54.20
2023-04-30T22:09:48.011Z,53.70
2023-04-30T22:12:15.561Z,55.00
2023-04-30T22:14:42.774Z,54.10
2023-04-30T22:17:09.880Z,54.20
2023-04-30T22:19:37.063Z,54.60
2023-04-30T22:22:04.209Z,55.90
2023-04-30T22:24:31.327Z,55.20
2023-04-30T22:26:58.465Z,55.30
2023-04-30T22:29:27.104Z,56.20
2023-04-30T22:31:54.247Z,56.40
2023-04-30T22:34:23.450Z,55.70
2023-04-30T22:36:50.540Z,55.40
2023-04-30T22:39:17.692Z,55.50
2023-04-30T22:41:48.115Z,55.90
2023-04-30T22:44:16.910Z,56.00
2023-04-30T22:46:44.232Z,55.50
2023-04-30T22:49:27.409Z,55.90
2023-04-30T22:51:58.331Z,55.60
2023-04-30T22:54:25.648Z,56.30
2023-04-30T22:56:53.242Z,56.10
2023-04-30T22:59:20.409Z,55.70
2023-04-30T23:01:47.548Z,55.60
2023-04-30T23:04:14.732Z,55.40
2023-04-30T23:06:42.992Z,55.50
2023-04-30T23:09:10.399Z,55.90
2023-04-30T23:11:37.485Z,55.70
2023-04-30T23:14:04.770Z,55.70
2023-04-30T23:16:34.559Z,55.80
2023-04-30T23:19:01.826Z,56.30
2023-04-30T23:21:29.008Z,55.70
2023-04-30T23:23:56.175Z,56.10
2023-04-30T23:26:23.284Z,57.00
2023-04-30T23:28:51.302Z,56.20
2023-04-30T23:31:18.663Z,56.60
2023-04-30T23:33:45.838Z,56.20
2023-04-30T23:36:13.432Z,56.20
2023-04-30T23:38:42.856Z,56.40
2023-04-30T23:41:10.061Z,56.30
2023-04-30T23:43:37.143Z,56.70
2023-04-30T23:46:04.699Z,56.60
2023-04-30T23:48:32.641Z,58.20
2023-04-30T23:51:01.438Z,57.10
2023-04-30T23:53:29.280Z,56.90
2023-04-30T23:55:57.958Z,58.10
2023-04-30T23:58:25.872Z,57.50
